Time;durP1;ratioP1;P1;durP2;ratioP2;P2;SDS_P1;SDS_P2;PMS_P1;PMS_P2;Temp;Humidity;BMP_temperature;BMP_pressure;BME280_temperature;BME280_humidity;BME280_pressure;Samples;Min_cycle;Max_cycle;Signal;HPM_P1;HPM_P2
2021/12/26 00:01:13;;;;;;;8.40;6.60;;;2.60;99.90;;;;;;10358122;28;20570;-74
2021/12/26 00:06:17;;;;;;;7.73;6.27;;;2.50;99.90;;;;;;10349189;28;20217;-75
2021/12/26 00:11:25;;;;;;;9.17;6.50;;;2.50;99.90;;;;;;10346535;28;20299;-74
2021/12/26 00:16:25;;;;;;;8.93;6.43;;;2.50;99.90;;;;;;10356563;28;20646;-74
2021/12/26 00:21:26;;;;;;;9.83;6.40;;;2.50;99.90;;;;;;10344279;28;20233;-74
2021/12/26 00:26:27;;;;;;;7.60;6.50;;;2.50;99.90;;;;;;10345772;28;20588;-74
2021/12/26 00:31:28;;;;;;;8.90;7.43;;;2.40;99.90;;;;;;10349666;28;20244;-74
2021/12/26 00:36:28;;;;;;;7.73;6.53;;;2.40;99.90;;;;;;10343437;28;20232;-75
2021/12/26 00:41:55;;;;;;;10.70;7.00;;;2.30;99.90;;;;;;10348619;28;20229;-74
2021/12/26 00:46:59;;;;;;;10.93;7.50;;;2.30;99.90;;;;;;10348487;28;20225;-73
2021/12/26 00:52:00;;;;;;;9.73;6.77;;;2.40;99.90;;;;;;10345045;28;20237;-74
2021/12/26 00:57:01;;;;;;;10.33;7.67;;;2.40;99.90;;;;;;10353615;28;20229;-74
2021/12/26 01:02:01;;;;;;;10.23;7.50;;;2.40;99.90;;;;;;10352758;28;20225;-75
2021/12/26 01:07:08;;;;;;;10.00;7.33;;;2.40;99.90;;;;;;10342136;28;20232;-75
2021/12/26 01:12:13;;;;;;;9.47;6.97;;;2.40;99.90;;;;;;10346298;28;20230;-74
2021/12/26 01:17:18;;;;;;;7.40;6.40;;;2.40;99.90;;;;;;10353362;28;20230;-74
2021/12/26 01:22:20;;;;;;;8.40;6.50;;;2.40;99.90;;;;;;10354131;28;20225;-74
2021/12/26 01:27:26;;;;;;;8.27;6.50;;;2.50;99.90;;;;;;10350654;28;20225;-74
2021/12/26 01:32:26;;;;;;;8.60;7.33;;;2.50;99.90;;;;;;10347802;28;20295;-74
2021/12/26 01:37:27;;;;;;;10.47;7.30;;;2.50;99.90;;;;;;10354739;28;20217;-75
2021/12/26 01:42:28;;;;;;;10.93;8.13;;;2.50;99.90;;;;;;10357005;28;20225;-74
2021/12/26 01:47:28;;;;;;;8.93;7.83;;;2.50;99.90;;;;;;10364603;28;20234;-74
2021/12/26 01:52:29;;;;;;;8.90;7.10;;;2.60;99.90;;;;;;10368678;28;20220;-74
2021/12/26 01:57:29;;;;;;;8.80;7.23;;;2.50;99.90;;;;;;10356412;28;20225;-74
2021/12/26 02:02:30;;;;;;;10.67;7.77;;;2.50;99.90;;;;;;10357378;28;20689;-75
2021/12/26 02:07:31;;;;;;;8.93;7.60;;;2.40;99.90;;;;;;10354722;28;20217;-74
2021/12/26 02:12:34;;;;;;;10.50;8.00;;;2.40;99.90;;;;;;10348137;28;20225;-75
2021/12/26 02:17:35;;;;;;;9.83;7.43;;;2.50;99.90;;;;;;10354774;28;20738;-75
2021/12/26 02:22:38;;;;;;;11.67;8.17;;;2.60;99.90;;;;;;10347456;28;20218;-74
2021/12/26 02:27:42;;;;;;;11.37;8.70;;;2.60;99.90;;;;;;10345624;28;20317;-74
2021/12/26 02:32:46;;;;;;;9.57;7.77;;;2.50;99.90;;;;;;10356097;28;20225;-75
2021/12/26 02:37:47;;;;;;;10.83;8.63;;;2.50;99.90;;;;;;10347678;28;20226;-74
2021/12/26 02:42:48;;;;;;;10.00;8.17;;;2.50;99.90;;;;;;10346489;28;20593;-74
2021/12/26 02:47:51;;;;;;;12.17;8.70;;;2.50;99.90;;;;;;10351473;28;20253;-74
2021/12/26 02:52:53;;;;;;;12.00;8.77;;;2.60;99.90;;;;;;10347779;28;20697;-75
2021/12/26 02:58:01;;;;;;;12.13;8.80;;;2.60;99.90;;;;;;10345232;28;20229;-74
2021/12/26 03:03:04;;;;;;;10.97;8.60;;;2.60;99.90;;;;;;10350483;28;20298;-74
2021/12/26 03:08:06;;;;;;;10.70;8.97;;;2.50;99.90;;;;;;10348838;28;20225;-75
2021/12/26 03:13:09;;;;;;;12.37;9.30;;;2.50;99.90;;;;;;10356043;28;20688;-74
2021/12/26 03:18:10;;;;;;;12.30;9.23;;;2.40;99.90;;;;;;10350964;28;20225;-74
2021/12/26 03:23:15;;;;;;;11.77;9.60;;;2.50;99.90;;;;;;10349475;28;20225;-74
2021/12/26 03:28:17;;;;;;;11.23;9.30;;;2.50;99.90;;;;;;10347710;28;20225;-74
2021/12/26 03:33:18;;;;;;;12.50;9.27;;;2.50;99.90;;;;;;10348449;28;20229;-74
2021/12/26 03:38:21;;;;;;;12.07;9.43;;;2.50;99.90;;;;;;10355490;28;20313;-75
2021/12/26 03:43:23;;;;;;;11.23;9.20;;;2.60;99.90;;;;;;10350787;28;20676;-74
2021/12/26 03:48:25;;;;;;;12.80;9.93;;;2.60;99.90;;;;;;10357501;28;20222;-74
2021/12/26 03:53:29;;;;;;;13.10;10.30;;;2.60;99.90;;;;;;10349613;28;20307;-74
2021/12/26 03:58:29;;;;;;;14.37;10.83;;;2.60;99.90;;;;;;10342995;28;20226;-74
2021/12/26 04:03:30;;;;;;;13.40;10.57;;;2.50;99.90;;;;;;10360010;28;20217;-75
2021/12/26 04:08:31;;;;;;;13.00;10.60;;;2.60;99.90;;;;;;10349753;28;20546;-74
2021/12/26 04:13:31;;;;;;;15.63;10.83;;;2.50;99.90;;;;;;10355952;28;20231;-74
2021/12/26 04:18:32;;;;;;;13.20;10.97;;;2.50;99.90;;;;;;10343058;28;20229;-74
2021/12/26 04:23:33;;;;;;;14.93;11.80;;;2.40;99.90;;;;;;10349687;28;20260;-74
2021/12/26 04:28:34;;;;;;;16.03;12.67;;;2.30;99.90;;;;;;10356076;28;20225;-74
2021/12/26 04:33:34;;;;;;;14.97;11.77;;;2.40;99.90;;;;;;10342360;28;20963;-74
2021/12/26 04:38:35;;;;;;;14.83;11.33;;;2.40;99.90;;;;;;10353431;28;20220;-74
2021/12/26 04:43:37;;;;;;;14.83;11.83;;;2.50;99.90;;;;;;10350365;28;20368;-74
2021/12/26 04:48:41;;;;;;;17.63;12.93;;;2.40;99.90;;;;;;10341415;28;20252;-74
2021/12/26 04:53:42;;;;;;;14.30;10.80;;;2.50;99.90;;;;;;10341916;28;20228;-74
2021/12/26 04:58:43;;;;;;;15.80;12.40;;;2.60;99.90;;;;;;10349226;28;20217;-74
2021/12/26 05:03:43;;;;;;;16.20;11.57;;;2.50;99.90;;;;;;10349566;28;20221;-74
2021/12/26 05:08:44;;;;;;;16.40;11.90;;;2.50;99.90;;;;;;10353417;28;20301;-74
2021/12/26 05:13:45;;;;;;;14.37;11.33;;;2.50;99.90;;;;;;10356591;28;20253;-74
2021/12/26 05:18:45;;;;;;;15.53;11.70;;;2.50;99.90;;;;;;10357161;28;20252;-75
2021/12/26 05:23:46;;;;;;;14.73;11.13;;;2.50;99.90;;;;;;10363448;28;20596;-74
2021/12/26 05:28:46;;;;;;;16.73;12.20;;;2.40;99.90;;;;;;10350419;28;20650;-74
2021/12/26 05:33:48;;;;;;;17.40;11.97;;;2.50;99.90;;;;;;10361849;28;20241;-74
2021/12/26 05:38:48;;;;;;;15.63;12.20;;;2.40;99.90;;;;;;10355239;28;20230;-74
2021/12/26 05:43:49;;;;;;;16.17;12.07;;;2.50;99.90;;;;;;10350357;28;20232;-74
2021/12/26 05:48:50;;;;;;;15.17;11.43;;;2.50;99.90;;;;;;10366945;28;20731;-74
2021/12/26 05:53:50;;;;;;;15.07;11.93;;;2.50;99.90;;;;;;10349964;28;20264;-74
2021/12/26 05:58:51;;;;;;;16.33;11.90;;;2.50;99.90;;;;;;10359959;28;20229;-74
2021/12/26 06:03:52;;;;;;;15.57;11.70;;;2.60;99.90;;;;;;10349343;28;20214;-74
2021/12/26 06:08:52;;;;;;;15.87;11.87;;;2.60;99.90;;;;;;10353567;28;20225;-74
2021/12/26 06:13:53;;;;;;;14.97;11.97;;;2.50;99.90;;;;;;10349043;28;20705;-74
2021/12/26 06:18:53;;;;;;;16.07;11.97;;;2.50;99.90;;;;;;10352953;28;20217;-74
2021/12/26 06:23:54;;;;;;;19.00;11.83;;;2.40;99.90;;;;;;10348802;28;20225;-74
2021/12/26 06:28:55;;;;;;;15.17;12.20;;;2.40;99.90;;;;;;10358952;28;20225;-74
2021/12/26 06:33:56;;;;;;;16.97;12.87;;;2.40;99.90;;;;;;10348659;28;20341;-74
2021/12/26 06:38:57;;;;;;;15.27;11.40;;;2.40;99.90;;;;;;10351299;28;20217;-74
2021/12/26 06:43:57;;;;;;;16.90;11.80;;;2.40;99.90;;;;;;10348892;28;20210;-74
2021/12/26 06:48:58;;;;;;;16.20;12.20;;;2.40;99.90;;;;;;10350237;28;20316;-75
2021/12/26 06:53:58;;;;;;;18.97;13.50;;;2.40;99.90;;;;;;10351478;28;20602;-75
2021/12/26 06:58:59;;;;;;;17.67;12.03;;;2.30;99.90;;;;;;10355136;28;20217;-75
2021/12/26 07:04:02;;;;;;;19.37;12.30;;;2.30;99.90;;;;;;10350220;28;20230;-74
2021/12/26 07:09:06;;;;;;;16.20;12.00;;;2.40;99.90;;;;;;10351919;28;20584;-74
2021/12/26 07:14:06;;;;;;;16.57;11.90;;;2.40;99.90;;;;;;10348848;28;20652;-74
2021/12/26 07:19:07;;;;;;;18.37;13.27;;;2.40;99.90;;;;;;10347803;28;20308;-74
2021/12/26 07:24:08;;;;;;;17.67;12.57;;;2.30;99.90;;;;;;10348236;28;20222;-73
2021/12/26 07:29:08;;;;;;;17.63;12.07;;;2.30;99.90;;;;;;10356185;28;20231;-74
2021/12/26 07:34:12;;;;;;;18.03;12.37;;;2.30;99.90;;;;;;10357901;28;20228;-74
2021/12/26 07:39:15;;;;;;;18.17;12.37;;;2.30;99.90;;;;;;10352216;28;20213;-73
2021/12/26 07:44:16;;;;;;;15.60;11.47;;;2.40;99.90;;;;;;10346368;28;20284;-74
2021/12/26 07:49:17;;;;;;;15.93;11.47;;;2.30;99.90;;;;;;10354953;28;20239;-74
2021/12/26 07:54:20;;;;;;;16.50;12.00;;;2.30;99.90;;;;;;10352662;28;20225;-74
2021/12/26 07:59:20;;;;;;;16.63;12.30;;;2.40;99.90;;;;;;10348441;28;20260;-74
2021/12/26 08:04:21;;;;;;;16.63;11.87;;;2.40;99.90;;;;;;10344806;28;20256;-74
2021/12/26 08:09:21;;;;;;;15.57;11.47;;;2.50;99.90;;;;;;10349129;28;20717;-75
2021/12/26 08:14:22;;;;;;;16.70;11.83;;;2.60;99.90;;;;;;10345343;28;20802;-74
2021/12/26 08:19:23;;;;;;;15.80;12.07;;;2.60;99.90;;;;;;10350267;28;20218;-74
2021/12/26 08:24:26;;;;;;;18.90;12.17;;;2.50;99.90;;;;;;10354905;28;20642;-74
2021/12/26 08:29:27;;;;;;;14.60;10.93;;;2.50;99.90;;;;;;10343899;28;20229;-75
2021/12/26 08:34:28;;;;;;;16.90;12.27;;;2.60;99.90;;;;;;10349002;28;20549;-74
2021/12/26 08:39:41;;;;;;;15.80;11.50;;;2.70;99.90;;;;;;10343535;28;20218;-74
2021/12/26 08:44:45;;;;;;;15.33;12.33;;;2.70;99.90;;;;;;10349906;28;20213;-74
2021/12/26 08:49:46;;;;;;;14.53;11.63;;;2.70;99.90;;;;;;10342699;28;20240;-74
2021/12/26 08:54:46;;;;;;;16.37;11.73;;;2.70;99.90;;;;;;10349253;28;20707;-74
2021/12/26 08:59:47;;;;;;;15.80;10.83;;;2.80;99.90;;;;;;10350464;28;20217;-75
2021/12/26 09:04:51;;;;;;;16.73;11.83;;;2.90;99.90;;;;;;10343730;28;20279;-74
2021/12/26 09:09:55;;;;;;;16.70;11.53;;;3.00;99.90;;;;;;10352934;28;20228;-74
2021/12/26 09:14:56;;;;;;;18.17;11.67;;;3.00;99.90;;;;;;10344792;28;20261;-74
2021/12/26 09:19:57;;;;;;;17.27;11.70;;;2.90;99.90;;;;;;10351265;28;20245;-75
2021/12/26 09:24:57;;;;;;;15.97;11.60;;;2.90;99.90;;;;;;10348666;28;20233;-74
2021/12/26 09:29:58;;;;;;;18.97;12.03;;;3.00;99.90;;;;;;10344634;28;20225;-74
2021/12/26 09:34:58;;;;;;;18.43;12.53;;;3.00;99.90;;;;;;10349530;28;20328;-75
2021/12/26 09:39:59;;;;;;;17.97;12.23;;;3.10;99.90;;;;;;10353074;28;20257;-75
2021/12/26 09:45:00;;;;;;;17.73;12.17;;;3.10;99.90;;;;;;10350025;28;20224;-76
2021/12/26 09:50:01;;;;;;;15.77;11.37;;;3.10;99.90;;;;;;10344194;28;20656;-74
2021/12/26 09:55:03;;;;;;;17.60;11.60;;;3.20;99.90;;;;;;10347265;28;20584;-75
2021/12/26 10:00:24;;;;;;;16.70;12.00;;;3.20;99.90;;;;;;10352848;28;20234;-75
2021/12/26 10:05:24;;;;;;;15.63;11.00;;;3.20;99.90;;;;;;10363477;28;20217;-75
2021/12/26 10:10:25;;;;;;;18.47;12.70;;;3.10;99.90;;;;;;10353386;28;20217;-74
2021/12/26 10:15:50;;;;;;;16.13;11.77;;;3.20;99.90;;;;;;10355938;28;20360;-74
2021/12/26 10:20:51;;;;;;;16.47;11.80;;;3.20;99.90;;;;;;10348533;28;20214;-74
2021/12/26 10:25:51;;;;;;;18.20;12.20;;;3.10;99.90;;;;;;10353336;28;20631;-74
2021/12/26 10:30:52;;;;;;;22.50;12.70;;;3.10;99.90;;;;;;10355051;28;20756;-74
2021/12/26 10:36:05;;;;;;;19.03;12.07;;;3.20;99.90;;;;;;10352774;28;20213;-75
2021/12/26 10:41:23;;;;;;;19.77;12.83;;;3.30;99.90;;;;;;10350107;28;20217;-74
2021/12/26 10:46:24;;;;;;;19.87;12.07;;;3.30;99.90;;;;;;10348209;28;20229;-74
2021/12/26 10:51:34;;;;;;;18.17;12.27;;;3.30;99.90;;;;;;10357169;28;20213;-75
2021/12/26 10:56:35;;;;;;;21.60;13.47;;;3.30;99.90;;;;;;10353219;28;20222;-75
2021/12/26 11:01:42;;;;;;;17.73;11.87;;;3.30;99.90;;;;;;10345657;28;20222;-74
2021/12/26 11:07:01;;;;;;;18.93;13.17;;;3.30;99.90;;;;;;10344025;28;20300;-75
2021/12/26 11:12:09;;;;;;;21.67;13.83;;;3.30;99.90;;;;;;10354300;28;20214;-76
2021/12/26 11:17:35;;;;;;;18.87;12.30;;;3.30;99.90;;;;;;10357716;28;20592;-74
2021/12/26 11:22:35;;;;;;;20.83;12.93;;;3.30;99.90;;;;;;10352624;28;20268;-75
2021/12/26 11:27:36;;;;;;;17.33;11.33;;;3.30;99.90;;;;;;10344916;28;20238;-75
2021/12/26 11:32:37;;;;;;;18.10;12.23;;;3.30;99.90;;;;;;10354343;28;20578;-75
2021/12/26 11:37:39;;;;;;;16.97;11.50;;;3.30;99.90;;;;;;10352302;28;20224;-75
2021/12/26 11:43:09;;;;;;;17.73;11.30;;;3.30;99.90;;;;;;10351981;28;21024;-75
2021/12/26 11:48:31;;;;;;;15.97;10.47;;;3.30;99.90;;;;;;10311039;28;20226;-75
2021/12/26 11:53:56;;;;;;;14.87;10.20;;;3.20;99.90;;;;;;10342590;28;20279;-75
2021/12/26 11:59:21;;;;;;;14.73;10.57;;;3.40;99.90;;;;;;10353201;28;20209;-75
2021/12/26 12:04:24;;;;;;;15.83;10.83;;;3.50;99.90;;;;;;10351379;28;20255;-74
2021/12/26 12:09:25;;;;;;;16.90;10.83;;;3.60;99.90;;;;;;10351620;28;20218;-74
2021/12/26 12:14:56;;;;;;;17.37;11.17;;;3.50;99.90;;;;;;10352684;28;20237;-75
2021/12/26 12:20:17;;;;;;;18.37;11.87;;;3.70;99.90;;;;;;10345680;28;20245;-74
2021/12/26 12:25:42;;;;;;;16.30;10.73;;;3.70;99.90;;;;;;10344978;28;20696;-74
2021/12/26 12:31:14;;;;;;;14.63;10.47;;;3.70;99.90;;;;;;10336878;28;20308;-74
2021/12/26 12:36:29;;;;;;;16.27;10.33;;;3.70;99.90;;;;;;10346145;28;20221;-74
2021/12/26 12:41:35;;;;;;;15.67;10.67;;;3.60;99.90;;;;;;10349449;28;20224;-74
2021/12/26 12:46:56;;;;;;;16.30;10.37;;;3.60;99.90;;;;;;10343417;28;20234;-74
2021/12/26 12:51:56;;;;;;;14.13;9.63;;;3.70;99.90;;;;;;10349209;28;20221;-74
2021/12/26 12:57:01;;;;;;;14.17;9.70;;;3.70;99.90;;;;;;10349052;28;20594;-74
2021/12/26 13:02:26;;;;;;;15.13;10.17;;;3.80;99.90;;;;;;10351809;28;20240;-75
2021/12/26 13:07:30;;;;;;;14.37;9.40;;;3.70;99.90;;;;;;10337461;28;20214;-75
2021/12/26 13:12:30;;;;;;;13.37;9.53;;;3.70;99.90;;;;;;10349118;28;20221;-75
2021/12/26 13:17:37;;;;;;;14.57;10.07;;;3.80;99.90;;;;;;10347591;28;20210;-75
2021/12/26 13:22:50;;;;;;;14.80;10.50;;;3.80;99.90;;;;;;10365303;28;20225;-76
2021/12/26 13:27:51;;;;;;;17.93;11.07;;;3.80;99.90;;;;;;10342505;28;20762;-74
2021/12/26 13:32:52;;;;;;;16.93;11.70;;;3.70;99.90;;;;;;10356197;28;20217;-74
2021/12/26 13:37:59;;;;;;;14.30;10.77;;;3.60;99.90;;;;;;10361928;28;20209;-74
2021/12/26 13:43:09;;;;;;;15.07;10.23;;;3.60;99.90;;;;;;10351418;28;20225;-75
2021/12/26 13:48:35;;;;;;;14.43;10.27;;;3.60;99.90;;;;;;10360224;28;20240;-75
2021/12/26 13:53:36;;;;;;;17.20;10.80;;;3.70;99.90;;;;;;10362624;28;20226;-75
2021/12/26 13:58:41;;;;;;;15.17;10.00;;;3.70;99.90;;;;;;10357319;28;20606;-74
2021/12/26 14:03:46;;;;;;;14.77;10.47;;;3.70;99.90;;;;;;10347538;28;20300;-75
2021/12/26 14:08:55;;;;;;;14.87;9.90;;;3.60;99.90;;;;;;10356246;28;20651;-75
2021/12/26 14:14:05;;;;;;;16.10;10.50;;;3.70;99.90;;;;;;10349876;28;20237;-74
2021/12/26 14:19:09;;;;;;;13.13;9.83;;;3.70;99.90;;;;;;10352012;28;20222;-75
2021/12/26 14:24:09;;;;;;;15.93;10.43;;;3.60;99.90;;;;;;10351149;28;20275;-76
2021/12/26 14:29:18;;;;;;;17.83;11.30;;;3.70;99.90;;;;;;10347035;28;20567;-75
2021/12/26 14:34:27;;;;;;;15.60;11.00;;;3.60;99.90;;;;;;10356796;28;20222;-75
2021/12/26 14:39:36;;;;;;;18.00;11.00;;;3.60;99.90;;;;;;10359395;28;20217;-75
2021/12/26 14:44:44;;;;;;;18.73;12.03;;;3.60;99.90;;;;;;10345869;28;20760;-75
2021/12/26 14:49:52;;;;;;;17.67;11.63;;;3.60;99.90;;;;;;10354882;28;20225;-75
2021/12/26 14:54:57;;;;;;;15.83;10.93;;;3.60;99.90;;;;;;10347525;28;20723;-75
2021/12/26 15:00:07;;;;;;;20.60;12.43;;;3.60;99.90;;;;;;10351627;28;20228;-75
2021/12/26 15:05:15;;;;;;;19.77;12.40;;;3.60;99.90;;;;;;10357565;28;20359;-75
2021/12/26 15:10:32;;;;;;;17.53;10.93;;;3.60;99.90;;;;;;10350297;28;20201;-74
2021/12/26 15:15:44;;;;;;;18.27;12.27;;;3.50;99.90;;;;;;10348806;28;20214;-75
2021/12/26 15:20:47;;;;;;;18.40;12.43;;;3.60;99.90;;;;;;10346375;28;20214;-75
2021/12/26 15:26:00;;;;;;;19.37;11.83;;;3.60;99.90;;;;;;10364695;28;20221;-75
2021/12/26 15:31:14;;;;;;;20.47;12.80;;;3.60;99.90;;;;;;10348605;28;20225;-75
2021/12/26 15:36:45;;;;;;;20.70;13.33;;;3.70;99.90;;;;;;10353616;28;20682;-75
2021/12/26 15:41:49;;;;;;;21.57;12.97;;;3.70;99.90;;;;;;10340613;28;20746;-74
2021/12/26 15:46:50;;;;;;;19.33;12.93;;;3.70;99.90;;;;;;10357184;28;20229;-74
2021/12/26 15:51:54;;;;;;;20.60;12.90;;;3.70;99.90;;;;;;10343954;28;20257;-74
2021/12/26 15:56:55;;;;;;;24.13;14.27;;;3.60;99.90;;;;;;10348986;28;20313;-75
2021/12/26 16:01:55;;;;;;;22.17;13.07;;;3.70;99.90;;;;;;10350025;28;20661;-75
2021/12/26 16:06:56;;;;;;;20.67;13.10;;;3.80;99.90;;;;;;10355319;28;20723;-75
2021/12/26 16:11:56;;;;;;;21.00;13.53;;;3.70;99.90;;;;;;10348302;28;20221;-75
2021/12/26 16:16:57;;;;;;;24.23;14.40;;;3.70;99.90;;;;;;10355183;28;20301;-75
2021/12/26 16:21:57;;;;;;;25.23;13.50;;;3.70;99.90;;;;;;10344223;28;20226;-75
2021/12/26 16:26:58;;;;;;;23.27;14.20;;;3.70;99.90;;;;;;10347230;28;20295;-75
2021/12/26 16:31:59;;;;;;;20.70;13.77;;;3.70;99.90;;;;;;10344501;28;20313;-75
2021/12/26 16:36:59;;;;;;;22.60;13.87;;;3.70;99.90;;;;;;10347109;28;20213;-75
2021/12/26 16:42:00;;;;;;;25.20;14.50;;;3.70;99.90;;;;;;10344098;28;20232;-75
2021/12/26 16:47:01;;;;;;;20.50;14.07;;;3.70;99.90;;;;;;10347559;28;20229;-75
2021/12/26 16:52:02;;;;;;;23.93;15.00;;;3.80;99.90;;;;;;10354518;28;20290;-75
2021/12/26 16:57:03;;;;;;;20.57;13.67;;;3.80;99.90;;;;;;10343869;28;20359;-74
2021/12/26 17:02:04;;;;;;;18.73;12.67;;;3.80;99.90;;;;;;10346259;28;20633;-74
2021/12/26 17:07:05;;;;;;;20.57;13.53;;;3.80;99.90;;;;;;10353605;28;20225;-75
2021/12/26 17:12:06;;;;;;;22.47;14.27;;;3.80;99.90;;;;;;10356172;28;20319;-75
2021/12/26 17:17:07;;;;;;;20.30;12.27;;;3.80;99.90;;;;;;10349233;28;20265;-75
2021/12/26 17:22:08;;;;;;;21.10;14.10;;;3.90;99.90;;;;;;10352016;28;20263;-75
2021/12/26 17:27:20;;;;;;;25.17;14.07;;;3.90;99.90;;;;;;10352903;28;20589;-75
2021/12/26 17:32:22;;;;;;;20.83;12.50;;;3.90;99.90;;;;;;10355159;28;20220;-75
2021/12/26 17:37:23;;;;;;;19.63;12.73;;;4.00;99.90;;;;;;10355898;28;20225;-74
2021/12/26 17:42:23;;;;;;;19.20;12.60;;;4.00;99.90;;;;;;10358286;28;20260;-74
2021/12/26 17:47:24;;;;;;;20.13;13.37;;;4.00;99.90;;;;;;10353690;28;20289;-75
2021/12/26 17:52:24;;;;;;;21.10;12.87;;;4.00;99.90;;;;;;10355807;28;20305;-74
2021/12/26 17:57:25;;;;;;;19.47;13.00;;;4.00;99.90;;;;;;10355406;28;20644;-74
2021/12/26 18:02:25;;;;;;;21.50;13.73;;;4.00;99.90;;;;;;10356082;28;20229;-75
2021/12/26 18:07:26;;;;;;;19.27;12.80;;;4.00;99.90;;;;;;10355885;28;20221;-75
2021/12/26 18:12:26;;;;;;;19.80;13.10;;;4.00;99.90;;;;;;10354231;28;20388;-75
2021/12/26 18:17:27;;;;;;;19.67;13.43;;;4.00;99.90;;;;;;10369557;28;20213;-75
2021/12/26 18:22:28;;;;;;;19.80;13.13;;;4.00;99.90;;;;;;10355605;28;20218;-75
2021/12/26 18:27:28;;;;;;;20.70;13.30;;;4.00;99.90;;;;;;10360013;28;20217;-75
2021/12/26 18:32:30;;;;;;;21.20;14.03;;;4.00;99.90;;;;;;10355724;28;20222;-76
2021/12/26 18:37:30;;;;;;;20.77;14.23;;;4.00;99.90;;;;;;10352857;28;20224;-75
2021/12/26 18:42:31;;;;;;;22.90;14.67;;;4.00;99.90;;;;;;10350602;28;20253;-75
2021/12/26 18:47:31;;;;;;;21.50;14.50;;;4.00;99.90;;;;;;10354018;28;20236;-75
2021/12/26 18:52:32;;;;;;;21.77;14.67;;;4.00;99.90;;;;;;10352637;28;20570;-75
2021/12/26 18:57:38;;;;;;;21.30;14.37;;;4.10;99.90;;;;;;10353256;28;20218;-75
2021/12/26 19:02:39;;;;;;;22.40;14.63;;;4.00;99.90;;;;;;10350799;28;20565;-74
2021/12/26 19:07:40;;;;;;;24.30;15.10;;;4.10;99.90;;;;;;10353145;28;20341;-75
2021/12/26 19:12:40;;;;;;;24.37;14.63;;;4.10;99.90;;;;;;10354456;28;20333;-75
2021/12/26 19:17:41;;;;;;;24.80;15.30;;;4.10;99.90;;;;;;10345512;28;20605;-75
2021/12/26 19:22:42;;;;;;;22.03;14.47;;;4.10;99.90;;;;;;10354473;28;20224;-76
2021/12/26 19:27:46;;;;;;;26.33;15.63;;;4.10;99.90;;;;;;10354301;28;21019;-75
2021/12/26 19:32:46;;;;;;;23.47;15.43;;;4.10;99.90;;;;;;10351638;28;20226;-75
2021/12/26 19:37:47;;;;;;;21.10;14.57;;;4.10;99.90;;;;;;10357395;28;20469;-75
2021/12/26 19:42:49;;;;;;;23.97;15.67;;;4.10;99.90;;;;;;10358213;28;20276;-74
2021/12/26 19:47:49;;;;;;;22.77;15.17;;;4.10;99.90;;;;;;10355467;28;20658;-75
2021/12/26 19:52:50;;;;;;;19.90;14.73;;;4.10;99.90;;;;;;10353353;28;20228;-76
2021/12/26 19:57:51;;;;;;;24.17;16.40;;;4.10;99.90;;;;;;10345632;28;20280;-75
2021/12/26 20:02:51;;;;;;;22.33;15.53;;;4.10;99.90;;;;;;10351857;28;20220;-75
2021/12/26 20:07:54;;;;;;;22.13;15.33;;;4.20;99.90;;;;;;10355914;28;20220;-75
2021/12/26 20:12:54;;;;;;;25.03;16.40;;;4.20;99.90;;;;;;10345208;28;20257;-75
2021/12/26 20:17:56;;;;;;;24.57;16.73;;;4.20;99.90;;;;;;10356354;28;20251;-75
2021/12/26 20:23:00;;;;;;;24.97;16.23;;;4.20;99.90;;;;;;10344808;28;20221;-75
2021/12/26 20:28:00;;;;;;;26.13;17.23;;;4.20;99.90;;;;;;10354407;28;20766;-75
2021/12/26 20:33:01;;;;;;;26.10;17.40;;;4.10;99.90;;;;;;10345179;28;20221;-75
2021/12/26 20:38:02;;;;;;;26.07;17.10;;;4.20;99.90;;;;;;10348902;28;20206;-75
2021/12/26 20:43:03;;;;;;;25.20;17.50;;;4.20;99.90;;;;;;10344867;28;20221;-74
2021/12/26 20:48:04;;;;;;;26.67;17.13;;;4.20;99.90;;;;;;10347219;28;20226;-74
2021/12/26 20:53:05;;;;;;;23.83;17.17;;;4.20;99.90;;;;;;10344997;28;20224;-75
2021/12/26 20:58:05;;;;;;;22.47;16.43;;;4.20;99.90;;;;;;10346658;28;20288;-74
2021/12/26 21:03:06;;;;;;;23.57;16.00;;;4.20;99.90;;;;;;10345180;28;20232;-75
2021/12/26 21:08:07;;;;;;;22.73;15.90;;;4.30;99.90;;;;;;10351659;28;20218;-76
2021/12/26 21:13:07;;;;;;;22.20;14.73;;;4.30;99.90;;;;;;10345037;28;20236;-75
2021/12/26 21:18:08;;;;;;;21.83;15.13;;;4.40;99.90;;;;;;10352257;28;20214;-75
2021/12/26 21:23:08;;;;;;;22.03;14.70;;;4.40;99.90;;;;;;10344706;28;20533;-76
2021/12/26 21:28:10;;;;;;;19.97;14.40;;;4.40;99.90;;;;;;10346209;28;20235;-75
2021/12/26 21:33:11;;;;;;;22.10;14.13;;;4.50;99.90;;;;;;10344731;28;20235;-75
2021/12/26 21:38:13;;;;;;;19.17;13.50;;;4.50;99.90;;;;;;10351393;28;20217;-75
2021/12/26 21:43:13;;;;;;;17.47;13.63;;;4.50;99.90;;;;;;10351068;28;20217;-75
2021/12/26 21:48:14;;;;;;;19.53;13.60;;;4.50;99.90;;;;;;10351674;28;20693;-74
2021/12/26 21:53:15;;;;;;;19.23;13.43;;;4.50;99.90;;;;;;10351721;28;20230;-75
2021/12/26 21:58:17;;;;;;;18.30;13.60;;;4.60;99.90;;;;;;10352907;28;20220;-74
2021/12/26 22:03:18;;;;;;;18.77;14.00;;;4.50;99.90;;;;;;10357928;28;20979;-75
2021/12/26 22:08:19;;;;;;;20.53;14.60;;;4.50;99.90;;;;;;10354995;28;20249;-75
2021/12/26 22:13:20;;;;;;;18.53;13.63;;;4.50;99.90;;;;;;10353212;28;20217;-75
2021/12/26 22:18:20;;;;;;;18.97;13.80;;;4.50;99.90;;;;;;10354921;28;20241;-75
2021/12/26 22:23:21;;;;;;;17.20;12.90;;;4.50;99.90;;;;;;10352320;28;20282;-75
2021/12/26 22:28:21;;;;;;;15.43;11.97;;;4.60;99.90;;;;;;10348764;28;20301;-75
2021/12/26 22:33:22;;;;;;;12.77;10.30;;;4.70;99.90;;;;;;10352835;28;20274;-75
2021/12/26 22:38:23;;;;;;;11.80;9.33;;;4.70;99.90;;;;;;10349194;28;20660;-75
2021/12/26 22:43:24;;;;;;;13.77;8.50;;;4.70;99.90;;;;;;10348775;28;20379;-75
2021/12/26 22:48:25;;;;;;;11.60;8.97;;;4.70;99.90;;;;;;10353635;28;20229;-74
2021/12/26 22:53:25;;;;;;;11.30;8.80;;;4.70;99.90;;;;;;10346178;28;20222;-75
2021/12/26 22:58:29;;;;;;;14.53;11.40;;;4.70;99.90;;;;;;10351700;28;20229;-74
2021/12/26 23:03:29;;;;;;;16.03;11.93;;;4.80;99.90;;;;;;10345882;28;20226;-74
2021/12/26 23:08:30;;;;;;;16.23;12.67;;;4.80;99.90;;;;;;10351590;28;20272;-74
2021/12/26 23:13:31;;;;;;;17.33;13.47;;;4.80;99.90;;;;;;10353798;28;20218;-74
2021/12/26 23:18:33;;;;;;;16.97;12.77;;;4.90;99.90;;;;;;10358945;28;20624;-75
2021/12/26 23:23:35;;;;;;;15.37;12.70;;;4.90;99.90;;;;;;10347514;28;20297;-75
2021/12/26 23:28:35;;;;;;;17.33;13.20;;;5.00;99.90;;;;;;10362055;28;20225;-75
2021/12/26 23:33:36;;;;;;;15.77;11.63;;;5.10;99.90;;;;;;10353024;28;20233;-74
2021/12/26 23:38:37;;;;;;;14.70;12.07;;;5.10;99.90;;;;;;10359968;28;20210;-74
2021/12/26 23:43:38;;;;;;;14.10;11.13;;;5.20;99.90;;;;;;10354242;28;20220;-75
2021/12/26 23:48:43;;;;;;;12.20;9.20;;;5.20;99.90;;;;;;10350466;28;20340;-75
2021/12/26 23:53:43;;;;;;;10.17;8.03;;;5.20;99.90;;;;;;10358134;28;20275;-74
2021/12/26 23:58:44;;;;;;;10.03;8.50;;;5.20;99.90;;;;;;10350198;28;20648;-75
